Time;durP1;ratioP1;P1;durP2;ratioP2;P2;SDS_P1;SDS_P2;PMS_P1;PMS_P2;Temp;Humidity;BMP_temperature;BMP_pressure;BME280_temperature;BME280_humidity;BME280_pressure;Samples;Min_cycle;Max_cycle;Signal;HPM_P1;HPM_P2
2023/12/16 00:01:52;;;;;;;14.27;10.10;;;5.50;71.60;;;;;;5040771;28;20235;-66
2023/12/16 00:04:18;;;;;;;13.17;10.83;;;5.50;71.80;;;;;;5041341;28;20213;-65
2023/12/16 00:06:45;;;;;;;12.37;9.70;;;5.50;71.60;;;;;;5047661;28;20320;-65
2023/12/16 00:09:12;;;;;;;12.17;9.93;;;5.50;72.20;;;;;;5044632;28;20675;-65
2023/12/16 00:11:39;;;;;;;12.60;10.47;;;5.50;71.90;;;;;;5048839;28;20207;-66
2023/12/16 00:14:05;;;;;;;13.37;10.63;;;5.50;72.00;;;;;;5041684;28;20234;-66
2023/12/16 00:16:32;;;;;;;13.13;9.93;;;5.40;72.50;;;;;;5041241;28;20260;-65
2023/12/16 00:18:58;;;;;;;12.17;10.87;;;5.50;72.50;;;;;;5039612;28;20199;-65
2023/12/16 00:21:25;;;;;;;14.20;10.40;;;5.50;72.20;;;;;;5042483;28;20671;-66
2023/12/16 00:23:51;;;;;;;14.20;11.43;;;5.40;72.50;;;;;;5044361;28;20237;-66
2023/12/16 00:26:18;;;;;;;13.50;10.43;;;5.50;72.30;;;;;;5048226;28;20246;-66
2023/12/16 00:28:45;;;;;;;13.77;11.30;;;5.40;72.40;;;;;;5046019;28;20668;-67
2023/12/16 00:31:12;;;;;;;11.90;10.37;;;5.50;72.20;;;;;;5042849;28;20230;-66
2023/12/16 00:33:38;;;;;;;12.90;11.50;;;5.50;71.70;;;;;;5051542;28;20247;-65
2023/12/16 00:36:04;;;;;;;11.97;10.23;;;5.40;72.30;;;;;;5042914;28;20255;-65
2023/12/16 00:38:31;;;;;;;12.63;9.07;;;5.40;71.90;;;;;;5041266;28;20459;-65
2023/12/16 00:40:57;;;;;;;13.60;10.97;;;5.40;71.70;;;;;;5050507;28;20204;-65
2023/12/16 00:43:24;;;;;;;11.87;10.47;;;5.40;71.60;;;;;;5044837;28;20204;-67
2023/12/16 00:45:51;;;;;;;13.43;10.87;;;5.40;72.10;;;;;;5039889;28;20232;-66
2023/12/16 00:48:17;;;;;;;12.80;10.70;;;5.40;72.00;;;;;;5044997;28;20213;-67
2023/12/16 00:50:44;;;;;;;15.87;10.43;;;5.50;71.50;;;;;;5048232;28;20238;-65
2023/12/16 00:53:10;;;;;;;13.83;10.67;;;5.50;71.20;;;;;;5052487;28;20259;-66
2023/12/16 00:55:38;;;;;;;12.10;9.97;;;5.60;70.90;;;;;;5044435;28;20220;-67
2023/12/16 00:58:05;;;;;;;12.17;10.30;;;5.60;71.00;;;;;;5044441;28;20230;-66
2023/12/16 01:00:31;;;;;;;13.53;10.73;;;5.50;71.00;;;;;;5046224;28;20228;-65
2023/12/16 01:02:58;;;;;;;12.60;10.20;;;5.50;70.90;;;;;;5059202;28;20238;-66
2023/12/16 01:05:26;;;;;;;11.83;9.97;;;5.50;70.80;;;;;;5050380;28;20246;-64
2023/12/16 01:07:52;;;;;;;12.10;10.60;;;5.40;70.20;;;;;;5044222;28;20229;-66
2023/12/16 01:10:20;;;;;;;12.20;10.13;;;5.60;71.00;;;;;;5046377;28;20204;-66
2023/12/16 01:12:46;;;;;;;13.00;10.13;;;5.60;70.30;;;;;;5046299;28;20226;-66
2023/12/16 01:15:13;;;;;;;12.87;10.30;;;5.50;69.80;;;;;;5043628;28;20591;-66
2023/12/16 01:17:38;;;;;;;11.73;9.57;;;5.50;70.50;;;;;;5050143;28;20223;-68
2023/12/16 01:20:05;;;;;;;12.00;9.80;;;5.50;70.70;;;;;;5048726;28;20777;-66
2023/12/16 01:22:32;;;;;;;12.07;10.20;;;5.50;70.40;;;;;;5041603;28;20284;-65
2023/12/16 01:24:58;;;;;;;12.30;10.07;;;5.50;70.10;;;;;;5042528;28;20357;-69
2023/12/16 01:27:25;;;;;;;11.90;9.70;;;5.50;70.00;;;;;;5047471;28;20232;-66
2023/12/16 01:29:51;;;;;;;13.83;10.83;;;5.60;70.00;;;;;;5046091;28;20238;-66
2023/12/16 01:32:18;;;;;;;11.70;9.93;;;5.60;69.80;;;;;;5041864;28;20734;-65
2023/12/16 01:34:44;;;;;;;11.53;10.17;;;5.50;69.80;;;;;;5042841;28;20624;-67
2023/12/16 01:37:11;;;;;;;11.43;9.87;;;5.50;70.00;;;;;;5044355;28;20741;-66
2023/12/16 01:39:37;;;;;;;12.10;9.70;;;5.60;70.50;;;;;;5042698;28;20201;-65
2023/12/16 01:42:04;;;;;;;14.07;10.63;;;5.50;70.20;;;;;;5040440;28;20204;-68
2023/12/16 01:44:30;;;;;;;14.47;11.30;;;5.50;70.20;;;;;;5043231;28;20284;-66
2023/12/16 01:46:57;;;;;;;13.53;11.37;;;5.50;70.10;;;;;;5045282;28;20293;-66
2023/12/16 01:49:23;;;;;;;11.67;10.47;;;5.50;69.70;;;;;;5044902;28;20685;-66
2023/12/16 01:51:50;;;;;;;12.57;10.53;;;5.50;70.20;;;;;;5042251;28;20212;-66
2023/12/16 01:54:16;;;;;;;15.10;10.67;;;5.50;70.30;;;;;;5047900;28;20242;-66
2023/12/16 01:56:43;;;;;;;11.77;10.20;;;5.50;70.30;;;;;;5044732;28;20248;-65
2023/12/16 01:59:09;;;;;;;12.37;10.60;;;5.50;70.60;;;;;;5039872;28;20249;-65
2023/12/16 02:01:36;;;;;;;12.37;10.10;;;5.50;69.80;;;;;;5046981;28;20239;-67
2023/12/16 02:04:02;;;;;;;11.07;9.87;;;5.50;70.10;;;;;;5041709;28;20297;-65
2023/12/16 02:06:29;;;;;;;12.00;9.27;;;5.50;70.60;;;;;;5042503;28;20667;-66
2023/12/16 02:08:55;;;;;;;11.77;9.87;;;5.50;70.90;;;;;;5044635;28;20234;-65
2023/12/16 02:11:22;;;;;;;11.67;9.70;;;5.50;70.50;;;;;;5056224;28;20244;-65
2023/12/16 02:13:49;;;;;;;11.37;9.53;;;5.50;70.90;;;;;;5041184;28;20234;-67
2023/12/16 02:16:15;;;;;;;12.67;10.23;;;5.50;70.70;;;;;;5046934;28;20339;-65
2023/12/16 02:18:42;;;;;;;11.33;9.33;;;5.50;70.40;;;;;;5040577;28;20580;-64
2023/12/16 02:21:08;;;;;;;12.33;10.23;;;5.40;70.40;;;;;;5042387;28;20240;-64
2023/12/16 02:23:35;;;;;;;11.17;9.67;;;5.40;70.60;;;;;;5049925;28;20629;-68
2023/12/16 02:26:01;;;;;;;14.03;10.03;;;5.40;70.80;;;;;;5040463;28;20224;-66
2023/12/16 02:28:28;;;;;;;12.97;9.80;;;5.40;71.30;;;;;;5049951;28;20254;-66
2023/12/16 02:30:54;;;;;;;12.00;10.20;;;5.40;70.80;;;;;;5044021;28;20682;-64
2023/12/16 02:33:21;;;;;;;11.43;9.80;;;5.40;71.10;;;;;;5041039;28;20203;-65
2023/12/16 02:35:47;;;;;;;10.80;9.70;;;5.40;71.50;;;;;;5038050;28;20232;-66
2023/12/16 02:38:14;;;;;;;11.40;9.37;;;5.30;71.40;;;;;;5044380;28;20288;-66
2023/12/16 02:40:42;;;;;;;9.93;8.90;;;5.30;71.80;;;;;;5040828;28;20233;-65
2023/12/16 02:43:08;;;;;;;10.90;9.17;;;5.30;71.80;;;;;;5040764;28;20213;-65
2023/12/16 02:45:35;;;;;;;9.30;8.33;;;5.30;71.60;;;;;;5046389;28;20716;-65
2023/12/16 02:48:01;;;;;;;10.30;8.87;;;5.40;72.30;;;;;;5040956;28;20278;-65
2023/12/16 02:50:28;;;;;;;9.80;8.80;;;5.40;71.40;;;;;;5048785;28;20236;-70
2023/12/16 02:52:54;;;;;;;11.27;9.20;;;5.40;71.60;;;;;;5042996;28;20209;-66
2023/12/16 02:55:21;;;;;;;9.50;8.10;;;5.30;71.20;;;;;;5051320;28;20270;-65
2023/12/16 02:57:47;;;;;;;9.60;8.30;;;5.20;71.60;;;;;;5043678;28;20502;-65
2023/12/16 03:00:14;;;;;;;10.87;8.77;;;5.20;72.80;;;;;;5052294;28;20212;-65
2023/12/16 03:02:40;;;;;;;11.83;8.90;;;5.20;72.00;;;;;;5053042;28;20260;-65
2023/12/16 03:05:07;;;;;;;12.43;9.73;;;5.20;71.90;;;;;;5045973;28;20240;-66
2023/12/16 03:07:33;;;;;;;10.27;9.10;;;5.20;72.30;;;;;;5049727;28;20204;-66
2023/12/16 03:10:00;;;;;;;13.40;10.30;;;5.30;72.40;;;;;;5039481;28;20208;-65
2023/12/16 03:12:27;;;;;;;11.73;9.70;;;5.20;72.20;;;;;;5046825;28;20224;-65
2023/12/16 03:14:53;;;;;;;12.07;9.27;;;5.20;72.00;;;;;;5044371;28;20223;-64
2023/12/16 03:17:20;;;;;;;13.03;10.37;;;5.30;71.70;;;;;;5050512;28;20268;-65
2023/12/16 03:19:46;;;;;;;11.50;9.53;;;5.20;72.00;;;;;;5058243;28;20242;-65
2023/12/16 03:22:13;;;;;;;12.57;9.70;;;5.10;72.70;;;;;;5050328;28;20238;-63
2023/12/16 03:24:39;;;;;;;11.70;9.73;;;5.10;72.70;;;;;;5038584;28;20228;-66
2023/12/16 03:27:06;;;;;;;12.17;9.53;;;5.10;72.70;;;;;;5037470;28;20209;-65
2023/12/16 03:29:32;;;;;;;11.00;9.47;;;5.20;72.80;;;;;;5041724;28;20214;-66
2023/12/16 03:31:59;;;;;;;9.93;8.93;;;5.20;73.50;;;;;;5043165;28;20646;-65
2023/12/16 03:34:25;;;;;;;10.27;9.17;;;5.20;72.80;;;;;;5046699;28;20235;-66
2023/12/16 03:36:52;;;;;;;12.17;9.87;;;5.20;72.80;;;;;;5048483;28;20211;-65
2023/12/16 03:39:18;;;;;;;11.87;9.27;;;5.10;72.40;;;;;;5050863;28;20232;-67
2023/12/16 03:41:45;;;;;;;11.63;9.37;;;5.20;72.80;;;;;;5042969;28;20247;-65
2023/12/16 03:44:11;;;;;;;10.43;8.53;;;5.20;72.80;;;;;;5040634;28;20234;-65
2023/12/16 03:46:38;;;;;;;10.73;8.93;;;5.20;72.80;;;;;;5041390;28;20311;-67
2023/12/16 03:49:04;;;;;;;11.53;8.80;;;5.20;72.80;;;;;;5043479;28;20294;-65
2023/12/16 03:51:31;;;;;;;10.30;8.80;;;5.10;72.70;;;;;;5040797;28;20584;-65
2023/12/16 03:53:57;;;;;;;10.47;9.20;;;5.20;72.80;;;;;;5051204;28;20259;-68
2023/12/16 03:56:24;;;;;;;10.17;8.97;;;5.20;72.80;;;;;;5045026;28;20594;-66
2023/12/16 03:58:50;;;;;;;10.70;9.00;;;5.20;72.80;;;;;;5038842;28;20259;-63
2023/12/16 04:01:17;;;;;;;13.23;9.63;;;5.20;72.60;;;;;;5038091;28;20239;-65
2023/12/16 04:03:43;;;;;;;10.93;9.03;;;5.20;72.60;;;;;;5046522;28;20234;-66
2023/12/16 04:06:10;;;;;;;10.53;8.80;;;5.20;71.80;;;;;;5050585;28;20735;-66
2023/12/16 04:08:36;;;;;;;10.90;8.43;;;5.20;72.30;;;;;;5042982;28;20214;-66
2023/12/16 04:11:03;;;;;;;11.07;9.43;;;5.30;72.20;;;;;;5051855;28;20409;-65
2023/12/16 04:13:29;;;;;;;10.73;9.03;;;5.30;72.10;;;;;;5040430;28;20212;-64
2023/12/16 04:15:56;;;;;;;10.83;9.37;;;5.30;71.60;;;;;;5045076;28;20257;-65
2023/12/16 04:18:23;;;;;;;11.57;9.80;;;5.30;71.80;;;;;;5045136;28;20286;-65
2023/12/16 04:20:49;;;;;;;13.50;10.50;;;5.30;71.20;;;;;;5051148;28;20235;-65
2023/12/16 04:23:16;;;;;;;11.40;9.57;;;5.30;71.90;;;;;;5048038;28;20343;-65
2023/12/16 04:25:43;;;;;;;12.13;10.40;;;5.30;71.90;;;;;;5043520;28;20228;-66
2023/12/16 04:28:09;;;;;;;14.10;10.83;;;5.40;72.20;;;;;;5049374;28;20267;-66
2023/12/16 04:30:36;;;;;;;11.67;10.17;;;5.40;71.30;;;;;;5041291;28;20694;-66
2023/12/16 04:33:02;;;;;;;13.67;11.23;;;5.30;71.40;;;;;;5043660;28;20236;-65
2023/12/16 04:35:29;;;;;;;14.00;10.77;;;5.30;71.00;;;;;;5042991;28;20255;-64
2023/12/16 04:37:55;;;;;;;15.53;11.30;;;5.30;71.40;;;;;;5044968;28;20644;-65
2023/12/16 04:40:22;;;;;;;14.80;11.73;;;5.30;71.40;;;;;;5042042;28;20233;-66
2023/12/16 04:42:48;;;;;;;14.03;11.40;;;5.30;71.30;;;;;;5043721;28;20240;-66
2023/12/16 04:45:15;;;;;;;14.80;11.13;;;5.30;71.40;;;;;;5050942;28;20231;-65
2023/12/16 04:47:41;;;;;;;13.90;10.80;;;5.30;71.00;;;;;;5042979;28;20220;-66
2023/12/16 04:50:08;;;;;;;13.67;11.17;;;5.30;71.30;;;;;;5050801;28;20351;-65
2023/12/16 04:52:34;;;;;;;14.50;10.77;;;5.30;71.60;;;;;;5048850;28;20217;-65
2023/12/16 04:55:01;;;;;;;14.33;10.87;;;5.20;71.90;;;;;;5037306;28;20276;-65
2023/12/16 04:57:28;;;;;;;14.80;11.17;;;5.20;71.60;;;;;;5052023;28;20624;-65
2023/12/16 04:59:54;;;;;;;12.90;10.27;;;5.20;71.90;;;;;;5056614;28;20267;-65
2023/12/16 05:02:21;;;;;;;12.77;10.97;;;5.30;71.40;;;;;;5042332;28;20278;-67
2023/12/16 05:04:47;;;;;;;14.40;10.87;;;5.30;71.50;;;;;;5035927;28;20260;-65
2023/12/16 05:07:14;;;;;;;13.80;11.17;;;5.30;71.60;;;;;;5045069;28;20744;-65
2023/12/16 05:09:40;;;;;;;15.17;11.97;;;5.30;71.60;;;;;;5045404;28;20231;-65
2023/12/16 05:12:07;;;;;;;14.03;11.57;;;5.30;71.30;;;;;;5046669;28;20683;-64
2023/12/16 05:14:33;;;;;;;14.17;11.03;;;5.20;71.30;;;;;;5049533;28;20245;-67
2023/12/16 05:17:00;;;;;;;15.40;11.33;;;5.20;71.40;;;;;;5049668;28;20655;-63
2023/12/16 05:19:26;;;;;;;13.47;10.93;;;5.20;71.30;;;;;;5056280;28;20231;-66
2023/12/16 05:21:53;;;;;;;14.73;10.97;;;5.20;71.30;;;;;;5053681;28;20240;-65
2023/12/16 05:24:20;;;;;;;13.67;10.87;;;5.20;71.00;;;;;;5053836;28;20654;-65
2023/12/16 05:26:46;;;;;;;13.40;10.97;;;5.30;71.20;;;;;;5042257;28;20234;-65
2023/12/16 05:29:13;;;;;;;12.67;10.67;;;5.20;71.40;;;;;;5039610;28;20239;-69
2023/12/16 05:31:40;;;;;;;12.67;10.77;;;5.20;71.60;;;;;;5050686;28;20644;-65
2023/12/16 05:34:07;;;;;;;13.13;10.53;;;5.20;71.40;;;;;;5055803;28;20239;-67
2023/12/16 05:36:33;;;;;;;14.67;11.70;;;5.20;71.30;;;;;;5037160;28;20281;-65
2023/12/16 05:39:00;;;;;;;14.20;11.40;;;5.20;71.60;;;;;;5053469;28;20749;-65
2023/12/16 05:41:26;;;;;;;15.00;11.37;;;5.30;71.60;;;;;;5053271;28;20242;-65
2023/12/16 05:43:53;;;;;;;12.57;10.83;;;5.30;71.40;;;;;;5045208;28;20235;-68
2023/12/16 05:46:19;;;;;;;12.70;10.17;;;5.30;71.30;;;;;;5043948;28;20235;-65
2023/12/16 05:48:46;;;;;;;15.40;11.20;;;5.40;70.80;;;;;;5048416;28;20205;-65
2023/12/16 05:51:12;;;;;;;14.27;10.97;;;5.30;70.80;;;;;;5049326;28;20218;-65
2023/12/16 05:53:39;;;;;;;12.03;10.60;;;5.30;70.90;;;;;;5050942;28;20208;-66
2023/12/16 05:56:06;;;;;;;12.67;10.23;;;5.30;70.90;;;;;;5047718;28;20278;-69
2023/12/16 05:58:32;;;;;;;12.17;10.20;;;5.20;71.10;;;;;;5053590;28;20233;-66
2023/12/16 06:00:59;;;;;;;12.37;10.13;;;5.20;71.30;;;;;;5044764;28;20243;-65
2023/12/16 06:03:26;;;;;;;13.90;10.43;;;5.20;71.30;;;;;;5040309;28;20212;-65
2023/12/16 06:05:52;;;;;;;13.63;10.50;;;5.30;70.90;;;;;;5050930;28;20243;-66
2023/12/16 06:08:18;;;;;;;16.80;10.67;;;5.20;71.00;;;;;;5053430;28;20738;-65
2023/12/16 06:10:45;;;;;;;12.80;10.60;;;5.20;70.90;;;;;;5049683;28;20252;-65
2023/12/16 06:13:12;;;;;;;13.97;10.40;;;5.30;71.10;;;;;;5041253;28;20285;-65
2023/12/16 06:15:38;;;;;;;11.60;10.37;;;5.20;71.10;;;;;;5042353;28;20265;-67
2023/12/16 06:18:06;;;;;;;13.30;9.70;;;5.20;71.30;;;;;;5051941;28;20762;-65
2023/12/16 06:20:32;;;;;;;14.00;10.23;;;5.30;71.00;;;;;;5046368;28;20201;-66
2023/12/16 06:22:59;;;;;;;13.50;10.07;;;5.20;70.60;;;;;;5050000;28;20203;-66
2023/12/16 06:25:26;;;;;;;13.37;10.23;;;5.30;70.90;;;;;;5045374;28;20596;-65
2023/12/16 06:27:52;;;;;;;13.20;10.10;;;5.30;70.90;;;;;;5048068;28;20254;-64
2023/12/16 06:30:19;;;;;;;12.93;10.57;;;5.30;70.80;;;;;;5048782;28;20719;-66
2023/12/16 06:32:45;;;;;;;13.73;10.93;;;5.30;70.60;;;;;;5043919;28;20243;-65
2023/12/16 06:35:12;;;;;;;13.13;9.37;;;5.30;70.40;;;;;;5051972;28;20252;-66
2023/12/16 06:37:38;;;;;;;12.87;10.73;;;5.30;70.60;;;;;;5039115;28;20219;-65
2023/12/16 06:40:04;;;;;;;11.23;9.77;;;5.20;70.80;;;;;;5050400;28;20263;-65
2023/12/16 06:42:31;;;;;;;13.17;10.30;;;5.30;70.60;;;;;;5049456;28;20237;-65
2023/12/16 06:44:57;;;;;;;13.07;10.17;;;5.30;71.00;;;;;;5050395;28;20252;-67
2023/12/16 06:47:24;;;;;;;11.83;10.07;;;5.30;70.30;;;;;;5038973;28;20668;-66
2023/12/16 06:49:52;;;;;;;13.70;10.97;;;5.20;70.60;;;;;;5042839;28;20216;-65
2023/12/16 06:52:18;;;;;;;12.47;9.97;;;5.20;70.60;;;;;;5048396;28;20213;-66
2023/12/16 06:54:45;;;;;;;12.90;10.23;;;5.20;70.60;;;;;;5040966;28;20213;-65
2023/12/16 06:57:11;;;;;;;12.47;9.83;;;5.20;70.60;;;;;;5029196;28;20208;-66
2023/12/16 06:59:38;;;;;;;14.80;10.67;;;5.30;70.10;;;;;;5051220;28;20609;-65
2023/12/16 07:02:04;;;;;;;11.57;9.17;;;5.20;70.40;;;;;;5048135;28;20250;-66
2023/12/16 07:04:31;;;;;;;13.07;10.53;;;5.20;70.10;;;;;;5041100;28;20300;-66
2023/12/16 07:06:57;;;;;;;12.40;10.33;;;5.20;70.50;;;;;;5046224;28;20253;-66
2023/12/16 07:09:24;;;;;;;10.77;8.97;;;5.10;70.70;;;;;;5040695;28;20228;-65
2023/12/16 07:11:50;;;;;;;12.00;9.80;;;5.10;70.30;;;;;;5040808;28;20704;-65
2023/12/16 07:14:17;;;;;;;10.63;9.10;;;5.00;71.00;;;;;;5041701;28;20291;-66
2023/12/16 07:16:43;;;;;;;11.43;9.53;;;5.00;70.80;;;;;;5041552;28;20262;-66
2023/12/16 07:19:10;;;;;;;10.43;9.20;;;5.00;70.80;;;;;;5047238;28;20235;-65
2023/12/16 07:21:36;;;;;;;11.07;9.30;;;5.00;70.80;;;;;;5020909;28;20199;-70
2023/12/16 07:24:03;;;;;;;11.23;9.13;;;5.00;70.40;;;;;;5043688;28;20239;-64
2023/12/16 07:26:29;;;;;;;12.33;9.77;;;5.10;70.40;;;;;;5044192;28;20227;-66
2023/12/16 07:28:56;;;;;;;11.40;10.03;;;5.10;70.30;;;;;;5024613;28;20283;-68
2023/12/16 07:31:23;;;;;;;12.10;9.73;;;5.10;69.90;;;;;;5038485;28;20282;-65
2023/12/16 07:33:49;;;;;;;12.70;9.97;;;5.20;70.00;;;;;;5042519;28;20208;-65
2023/12/16 07:36:16;;;;;;;12.30;9.13;;;5.20;70.00;;;;;;5044675;28;20307;-67
2023/12/16 07:38:43;;;;;;;11.13;8.97;;;5.20;70.00;;;;;;5047439;28;20209;-66
2023/12/16 07:41:10;;;;;;;10.37;8.70;;;5.30;69.60;;;;;;5047810;28;20606;-66
2023/12/16 07:43:36;;;;;;;11.73;9.07;;;5.40;69.70;;;;;;5044888;28;20207;-65
2023/12/16 07:46:03;;;;;;;12.10;9.23;;;5.40;69.50;;;;;;5042087;28;20232;-68
2023/12/16 07:48:29;;;;;;;10.13;9.10;;;5.20;69.00;;;;;;5034593;28;20746;-65
2023/12/16 07:50:56;;;;;;;11.53;8.97;;;5.20;69.60;;;;;;5047215;28;20235;-66
2023/12/16 07:53:22;;;;;;;10.47;9.10;;;5.20;69.20;;;;;;5046834;28;20227;-63
2023/12/16 07:55:49;;;;;;;10.87;8.93;;;5.10;69.40;;;;;;5038525;28;20232;-68
2023/12/16 07:58:16;;;;;;;10.80;8.23;;;5.20;69.50;;;;;;5042746;28;20208;-65
2023/12/16 08:00:42;;;;;;;10.63;9.07;;;5.20;69.30;;;;;;5039230;28;20727;-66
2023/12/16 08:03:09;;;;;;;12.57;9.13;;;5.20;69.00;;;;;;5043748;28;20402;-65
2023/12/16 08:05:35;;;;;;;12.87;9.50;;;5.40;68.90;;;;;;5047651;28;20272;-66
2023/12/16 08:08:02;;;;;;;10.77;8.40;;;5.50;68.60;;;;;;5050019;28;20212;-66
2023/12/16 08:10:29;;;;;;;9.27;8.27;;;5.50;68.60;;;;;;5035918;28;20786;-66
2023/12/16 08:12:56;;;;;;;11.57;9.67;;;5.50;67.80;;;;;;5038430;28;20219;-66
2023/12/16 08:15:22;;;;;;;10.10;8.37;;;5.40;67.50;;;;;;5040104;28;20262;-67
2023/12/16 08:17:49;;;;;;;11.10;8.57;;;5.50;68.30;;;;;;5042605;28;20588;-65
2023/12/16 08:20:15;;;;;;;9.97;8.33;;;5.40;67.50;;;;;;5044126;28;20281;-65
2023/12/16 08:22:42;;;;;;;10.40;8.93;;;5.60;67.70;;;;;;5035105;28;20691;-66
2023/12/16 08:25:09;;;;;;;9.43;8.43;;;5.50;67.90;;;;;;5045799;28;20255;-65
2023/12/16 08:27:35;;;;;;;9.47;8.00;;;5.50;68.10;;;;;;5038312;28;20381;-64
2023/12/16 08:30:02;;;;;;;9.87;8.00;;;5.90;67.60;;;;;;5038755;28;20654;-63
2023/12/16 08:32:28;;;;;;;10.47;8.90;;;5.90;66.20;;;;;;5047930;28;20426;-64
2023/12/16 08:34:55;;;;;;;8.40;7.57;;;5.90;65.60;;;;;;5036933;28;20252;-65
2023/12/16 08:37:22;;;;;;;8.43;7.53;;;5.90;66.20;;;;;;5039142;28;20263;-65
2023/12/16 08:39:48;;;;;;;9.50;8.47;;;5.80;66.10;;;;;;5052219;28;20321;-64
2023/12/16 08:42:15;;;;;;;8.77;7.47;;;5.80;66.00;;;;;;5059716;28;20243;-64
2023/12/16 08:44:41;;;;;;;10.33;8.00;;;5.70;65.90;;;;;;5054017;28;20305;-69
2023/12/16 08:47:08;;;;;;;10.00;7.73;;;5.80;66.90;;;;;;5050915;28;20295;-65
2023/12/16 08:49:34;;;;;;;9.37;8.20;;;5.80;66.40;;;;;;5044668;28;20208;-65
2023/12/16 08:52:00;;;;;;;10.60;8.20;;;5.80;66.30;;;;;;5048334;28;20237;-65
2023/12/16 08:54:27;;;;;;;9.50;8.10;;;5.80;66.40;;;;;;5040529;28;20206;-65
2023/12/16 08:56:54;;;;;;;9.47;7.93;;;5.80;66.10;;;;;;5053708;28;20766;-65
2023/12/16 08:59:21;;;;;;;10.20;8.10;;;5.80;66.50;;;;;;5060261;28;20231;-65
2023/12/16 09:01:47;;;;;;;11.37;8.20;;;5.90;66.30;;;;;;5033185;28;20205;-66
2023/12/16 09:04:14;;;;;;;9.37;8.03;;;5.90;65.50;;;;;;5021490;28;20269;-65
2023/12/16 09:06:43;;;;;;;9.30;8.03;;;5.90;66.20;;;;;;5045970;28;20592;-64
2023/12/16 09:09:11;;;;;;;8.97;7.90;;;5.90;65.90;;;;;;5044891;28;20733;-65
2023/12/16 09:11:38;;;;;;;9.00;7.70;;;5.90;66.40;;;;;;5053815;28;20232;-65
2023/12/16 09:14:05;;;;;;;9.53;8.00;;;6.00;65.50;;;;;;5036015;28;20212;-66
2023/12/16 09:16:32;;;;;;;12.63;8.90;;;6.10;65.90;;;;;;5040953;28;20240;-65
2023/12/16 09:18:59;;;;;;;10.47;7.30;;;6.00;65.70;;;;;;5045672;28;20227;-65
2023/12/16 09:21:25;;;;;;;8.50;7.53;;;6.10;66.50;;;;;;5045299;28;20278;-67
2023/12/16 09:23:52;;;;;;;11.07;7.70;;;6.10;65.80;;;;;;5044542;28;20659;-65
2023/12/16 09:26:18;;;;;;;10.13;8.10;;;6.10;65.10;;;;;;5053517;28;20310;-65
2023/12/16 09:28:45;;;;;;;11.97;8.53;;;6.10;65.40;;;;;;5050134;28;20242;-66
2023/12/16 09:31:11;;;;;;;11.43;8.23;;;6.00;65.30;;;;;;5043160;28;20304;-65
2023/12/16 09:33:38;;;;;;;8.80;7.57;;;5.90;65.60;;;;;;5047712;28;20237;-66
2023/12/16 09:36:04;;;;;;;9.80;6.90;;;5.90;65.80;;;;;;5041529;28;20235;-65
2023/12/16 09:38:31;;;;;;;9.60;8.17;;;6.00;65.90;;;;;;5053722;28;20320;-64
2023/12/16 09:40:57;;;;;;;9.80;8.00;;;6.10;64.60;;;;;;5047260;28;20291;-63
2023/12/16 09:43:24;;;;;;;10.03;8.73;;;6.20;64.80;;;;;;5042907;28;20646;-65
2023/12/16 09:45:50;;;;;;;11.50;8.10;;;6.20;65.60;;;;;;5049784;28;20233;-65
2023/12/16 09:48:17;;;;;;;9.63;8.00;;;6.30;65.00;;;;;;5042857;28;20728;-64
2023/12/16 09:50:44;;;;;;;8.77;7.60;;;6.40;64.30;;;;;;5051404;28;20301;-64
2023/12/16 09:53:10;;;;;;;9.23;7.77;;;6.60;64.50;;;;;;5053304;28;20216;-65
2023/12/16 09:55:37;;;;;;;8.47;7.57;;;6.70;63.60;;;;;;5052153;28;20272;-65
2023/12/16 09:58:03;;;;;;;8.10;7.30;;;6.90;62.50;;;;;;5041539;28;20209;-65
2023/12/16 10:00:30;;;;;;;8.03;6.97;;;6.70;62.30;;;;;;5051025;28;20311;-64
2023/12/16 10:02:57;;;;;;;8.67;6.83;;;6.90;62.80;;;;;;5045375;28;20210;-65
2023/12/16 10:05:26;;;;;;;8.30;6.97;;;6.90;62.40;;;;;;5042236;28;20796;-65
2023/12/16 10:07:52;;;;;;;7.73;6.67;;;7.00;62.20;;;;;;5055149;28;20229;-63
2023/12/16 10:10:19;;;;;;;7.43;6.67;;;7.10;62.00;;;;;;5051789;28;20210;-65
2023/12/16 10:12:45;;;;;;;7.43;6.63;;;7.00;61.70;;;;;;5044573;28;20322;-64
2023/12/16 10:15:12;;;;;;;7.63;6.77;;;7.00;62.40;;;;;;5042380;28;20261;-65
2023/12/16 10:17:39;;;;;;;7.30;6.60;;;7.10;60.90;;;;;;5044364;28;20698;-65
2023/12/16 10:20:05;;;;;;;6.93;6.27;;;7.80;60.30;;;;;;5052816;28;20753;-65
2023/12/16 10:22:32;;;;;;;7.53;6.07;;;8.60;57.70;;;;;;5052781;28;20237;-65
2023/12/16 10:24:58;;;;;;;6.67;6.07;;;9.40;54.40;;;;;;5052790;28;20261;-65
2023/12/16 10:27:25;;;;;;;7.80;6.13;;;9.60;53.20;;;;;;5052465;28;20239;-65
2023/12/16 10:29:52;;;;;;;5.83;5.27;;;9.90;51.20;;;;;;5040488;28;20616;-65
2023/12/16 10:32:19;;;;;;;6.37;5.77;;;10.30;50.30;;;;;;5051303;28;20202;-65
2023/12/16 10:34:45;;;;;;;5.90;5.30;;;10.90;49.80;;;;;;5044222;28;20213;-65
2023/12/16 10:37:12;;;;;;;6.17;5.47;;;11.20;47.80;;;;;;5052760;28;20659;-65
2023/12/16 10:39:38;;;;;;;5.47;4.97;;;11.80;46.10;;;;;;5052686;28;20256;-65
2023/12/16 10:42:05;;;;;;;4.60;4.20;;;12.10;44.20;;;;;;5058093;28;20892;-65
2023/12/16 10:44:31;;;;;;;5.43;4.27;;;11.80;46.10;;;;;;5052255;28;20262;-65
2023/12/16 10:46:58;;;;;;;5.80;4.20;;;11.90;45.00;;;;;;5046878;28;20623;-65
2023/12/16 10:49:24;;;;;;;3.63;3.33;;;11.90;43.90;;;;;;5045209;28;20230;-65
2023/12/16 10:51:51;;;;;;;4.43;3.30;;;12.00;43.10;;;;;;5045730;28;20209;-66
2023/12/16 10:54:17;;;;;;;4.40;4.00;;;11.60;43.60;;;;;;5052363;28;20266;-65
2023/12/16 10:56:44;;;;;;;3.50;3.20;;;12.20;44.00;;;;;;5052721;28;20257;-65
2023/12/16 10:59:10;;;;;;;4.93;4.40;;;10.80;43.30;;;;;;5052471;28;20303;-65
2023/12/16 11:01:37;;;;;;;4.10;3.80;;;11.20;43.20;;;;;;5051872;28;20297;-65
2023/12/16 11:04:03;;;;;;;3.20;2.80;;;12.20;41.00;;;;;;5045229;28;20230;-65
2023/12/16 11:06:30;;;;;;;3.43;3.13;;;12.80;38.20;;;;;;5046406;28;20235;-65
2023/12/16 11:08:57;;;;;;;3.50;3.20;;;12.90;37.20;;;;;;5049398;28;20236;-65
2023/12/16 11:11:24;;;;;;;3.83;3.53;;;13.10;38.00;;;;;;5048420;28;20687;-65
2023/12/16 11:13:52;;;;;;;5.20;4.23;;;14.20;36.70;;;;;;5053455;28;20209;-66
2023/12/16 11:16:17;;;;;;;4.47;3.83;;;13.20;38.10;;;;;;5055976;28;20235;-65
2023/12/16 11:18:44;;;;;;;4.20;3.40;;;14.80;36.50;;;;;;5051851;28;20201;-65
2023/12/16 11:21:14;;;;;;;3.87;3.40;;;16.80;32.10;;;;;;5051371;28;20258;-65
2023/12/16 11:23:40;;;;;;;4.40;3.87;;;18.00;30.50;;;;;;5045745;28;20672;-65
2023/12/16 11:26:07;;;;;;;3.93;3.53;;;14.60;33.80;;;;;;5014453;28;20234;-66
2023/12/16 11:28:34;;;;;;;3.90;3.30;;;12.20;39.80;;;;;;5035437;28;20259;-66
2023/12/16 11:31:00;;;;;;;3.60;2.80;;;10.70;42.80;;;;;;5046278;28;20279;-65
2023/12/16 11:33:26;;;;;;;4.10;2.83;;;9.90;46.40;;;;;;5014708;28;20238;-66
2023/12/16 11:35:53;;;;;;;5.63;2.90;;;9.50;46.60;;;;;;5040199;28;20648;-66
2023/12/16 11:38:19;;;;;;;3.93;2.80;;;9.30;47.50;;;;;;5045453;28;20205;-66
2023/12/16 11:40:46;;;;;;;4.63;3.23;;;9.10;46.90;;;;;;5039334;28;20599;-65
2023/12/16 11:43:13;;;;;;;3.27;3.00;;;9.00;48.00;;;;;;5039814;28;20214;-65
2023/12/16 11:45:39;;;;;;;3.40;3.10;;;9.00;49.20;;;;;;5041800;28;20255;-65
2023/12/16 11:48:06;;;;;;;4.27;2.90;;;8.80;48.90;;;;;;5035578;28;20213;-67
2023/12/16 11:50:32;;;;;;;2.70;2.47;;;8.70;47.90;;;;;;5039194;28;20256;-66
2023/12/16 11:52:59;;;;;;;3.40;2.70;;;8.70;46.80;;;;;;5037221;28;20207;-66
2023/12/16 11:55:25;;;;;;;5.20;3.20;;;8.60;47.10;;;;;;5039591;28;20214;-67
2023/12/16 11:57:52;;;;;;;4.30;3.70;;;8.40;48.10;;;;;;5047454;28;20811;-65
2023/12/16 12:00:19;;;;;;;4.20;3.90;;;8.30;48.60;;;;;;5039093;28;21227;-71
2023/12/16 12:02:46;;;;;;;4.30;3.90;;;8.70;48.90;;;;;;5046340;28;20216;-66
2023/12/16 12:05:12;;;;;;;4.03;3.60;;;9.30;46.60;;;;;;5048867;28;20689;-66
2023/12/16 12:07:39;;;;;;;4.73;3.67;;;9.20;47.10;;;;;;5038730;28;20211;-64
2023/12/16 12:10:05;;;;;;;5.07;3.93;;;8.80;47.30;;;;;;5049258;28;20213;-65
2023/12/16 12:12:32;;;;;;;4.87;4.37;;;8.60;48.80;;;;;;5040843;28;20233;-65
2023/12/16 12:14:58;;;;;;;5.83;4.47;;;8.50;50.30;;;;;;5043749;28;20264;-65
2023/12/16 12:17:26;;;;;;;6.17;4.47;;;8.60;50.50;;;;;;5041549;28;20624;-65
2023/12/16 12:19:52;;;;;;;4.80;4.40;;;8.50;49.80;;;;;;5049412;28;20219;-66
2023/12/16 12:22:19;;;;;;;5.00;4.50;;;8.20;50.60;;;;;;5056294;28;20638;-65
2023/12/16 12:24:45;;;;;;;4.40;4.00;;;8.00;50.80;;;;;;5046559;28;20233;-65
2023/12/16 12:27:12;;;;;;;5.00;4.50;;;8.00;52.00;;;;;;5044350;28;20237;-67
2023/12/16 12:29:38;;;;;;;6.27;4.47;;;7.90;52.40;;;;;;5048663;28;20201;-66
2023/12/16 12:32:05;;;;;;;5.77;5.03;;;7.90;52.40;;;;;;5043729;28;20672;-65
2023/12/16 12:34:32;;;;;;;4.50;4.10;;;7.70;52.60;;;;;;5038795;28;20670;-65
2023/12/16 12:36:58;;;;;;;5.53;4.97;;;7.70;52.60;;;;;;5047323;28;20264;-63
2023/12/16 12:39:25;;;;;;;5.90;5.30;;;7.70;52.20;;;;;;5047050;28;20242;-66
2023/12/16 12:41:52;;;;;;;5.40;4.90;;;7.60;52.80;;;;;;5038013;28;20263;-66